Date,TemperatureHighF,TemperatureAvgF,TemperatureLowF,DewpointHighF,DewpointAvgF,DewpointLowF,HumidityHigh,HumidityAvg,HumidityLow,PressureMaxIn,PressureMinIn,WindSpeedMaxMPH,WindSpeedAvgMPH,GustSpeedMaxMPH,PrecipitationSumIn
2013-4-1,53,35,22,29,20,9,82,54,24,30.95,30.80,15,4,15,0.00
2013-4-2,42,30,23,27,22,15,82,73,51,30.90,30.82,10,2,10,0.04
2013-4-3,46,33,24,27,20,14,78,61,31,31.04,30.90,16,4,16,0.13
2013-4-4,56,38,20,26,17,11,68,47,19,31.07,30.96,11,3,11,0.00
2013-4-5,57,40,27,30,20,4,85,50,19,30.97,30.76,24,4,24,0.00
2013-4-6,50,36,22,29,22,14,83,59,25,30.90,30.81,15,2,15,0.19
2013-4-7,44,34,28,31,25,20,84,70,42,30.84,30.70,15,4,15,0.02
2013-4-8,54,38,26,29,21,14,75,53,23,30.71,30.45,25,8,25,0.00
2013-4-9,43,29,17,23,15,6,76,57,39,30.62,30.48,25,8,25,0.05
2013-4-10,33,21,6,12,4,-4,63,47,38,30.80,30.71,18,8,19,0.00
2013-4-11,43,29,18,23,16,0,72,59,41,30.79,30.69,24,6,24,0.04
2013-4-12,48,33,24,25,15,2,74,51,20,30.84,30.76,21,4,21,0.01
2013-4-13,52,36,18,27,14,5,83,43,20,30.84,30.49,23,6,23,0.00
2013-4-14,35,25,18,26,16,9,85,71,36,30.65,30.52,18,2,18,0.00
2013-4-15,33,26,20,26,19,14,82,75,70,30.69,30.48,19,3,19,0.05
2013-4-16,46,36,20,27,22,10,82,57,39,30.67,30.53,25,9,25,0.13
2013-4-17,36,22,10,23,14,0,79,72,46,30.79,30.55,18,7,23,0.00
2013-4-18,22,12,4,2,-3,-10,65,51,31,30.99,30.78,25,9,25,0.00
2013-4-19,38,22,1,17,4,-12,69,48,31,30.98,30.85,15,4,15,0.00
2013-4-20,45,30,20,26,19,13,78,64,42,30.86,30.81,13,3,13,0.02
2013-4-22,32,27,23,25,21,17,82,78,72,30.85,30.78,0,0,0,0.01
2013-4-23,30,21,8,17,8,-8,78,57,27,30.95,30.77,20,5,20,0.01
2013-4-24,42,23,4,14,2,-10,53,41,21,31.04,30.92,70,5,70,0.00
2013-4-25,56,32,14,17,7,-2,51,36,19,31.03,30.83,15,5,15,0.00
2013-4-28,58,45,39,29,23,16,59,44,21,30.94,30.89,13,3,13,0.00
2013-4-29,65,50,30,33,21,12,80,38,17,30.95,30.73,24,6,24,0.00
2013-4-30,64,52,42,37,21,14,62,31,18,30.75,30.68,35,6,35,0.00